Colvin, Minnesota
Current Conditions -  °F | °C
As of 10:11 PM on Tuesday 21 Oct 2014 (Local Time) from KEVM Reporting Station
Broken Clouds Broken Clouds  
Wind Chill: 32°   Ceiling: 900
Heat Index: 36°   Visibility: 10mi
Dew Point: 36°   Wind: 5mph
Humidity: 100%   Direction: 120°ESE
Pressure: 30.19"   Gusts: NA
Location:  47.3034°N, 92.2081°W
Report Text: KEVM 220311Z AUTO 12004KT 10SM BKN009 02/02 A3019 RMK AO2
Loading
Personal Weather Stations






























Interactive Weather Map
Tropical Storm Tracking
New forecast layout! Learn more

10-Day Weather Forecast

Advertisements
Track Severe Weather on mobile